Latest Weather Observations for Toowoomba

IDQ60901

Issued at 6:05 pm EST Saturday 19 April 2014 (issued every 10 minutes, with the page automatically refreshed every 10 minutes)

About weather observations | Map of Brisbane area stations | Latest observations for Brisbane area | Other Formats
Station Details ID: 041529 Name: TOOWOOMBA AIRPORT Lat: -27.54 Lon: 151.91 Height: 640.9 m
Data from the previous 72 hours. | See also: Recent months at Toowoomba
Date/Time
EST
Tmp

°C
App
Tmp
°C
Dew
Point
°C
Rel
Hum
%
Delta-T

°C
Wind Press
QNH
hPa
Press
MSL
hPa
Rain
since
9 am
mm
Dir
 
Spd
km/h
Gust
km/h
Spd
kts
Gust
kts
19/06:00pm 19.1 16.4 5.6 41 6.8 SSW 9 11 5 6 1017.8 1015.5 0.0
19/05:30pm 19.9 16.4 5.5 39 7.3 SW 13 20 7 11 1017.4 - 0.0
19/05:00pm 21.0 16.4 5.8 37 7.8 SW 19 22 10 12 1017.2 - 0.0
19/04:30pm 21.9 17.3 5.8 35 8.3 SW 19 24 10 13 1017.1 - 0.0
19/04:00pm 22.1 17.9 5.5 34 8.6 SW 17 22 9 12 1017.0 - 0.0
19/03:30pm 22.8 18.8 6.6 35 8.6 WSW 17 24 9 13 1016.8 - 0.0
19/03:00pm 22.9 17.9 6.6 35 8.6 WSW 22 32 12 17 1016.7 1014.4 0.0
19/02:30pm 22.5 17.9 5.4 33 8.8 W 19 22 10 12 1016.8 - 0.0
19/02:00pm 22.4 17.1 4.9 32 8.9 WSW 22 35 12 19 1017.0 - 0.0
19/01:30pm 22.9 18.5 6.6 35 8.6 SW 19 35 10 19 1017.2 - 0.0
19/01:00pm 21.8 17.2 5.7 35 8.3 WSW 19 28 10 15 1017.7 - 0.0
19/12:30pm 21.5 16.0 5.8 36 8.1 WSW 24 33 13 18 1018.2 - 0.0
19/12:00pm 21.8 17.5 7.2 39 7.7 WSW 19 32 10 17 1018.7 1016.4 0.0
19/11:30am 21.2 15.7 5.9 37 7.9 WSW 24 35 13 19 1019.2 - 0.0
19/11:00am 21.0 15.6 6.5 39 7.6 WSW 24 35 13 19 1019.7 - 0.0
19/10:30am 20.5 15.4 6.1 39 7.4 WSW 22 30 12 16 1020.0 - 0.0
19/10:00am 19.8 16.2 6.9 43 6.7 WSW 15 22 8 12 1020.4 - 0.0
19/09:30am 19.1 15.7 5.9 42 6.7 SW 13 20 7 11 1020.4 - 0.0
19/09:00am 18.7 16.0 7.2 47 6.0 SW 11 15 6 8 1020.5 1018.2 0.0
19/08:30am 17.5 15.5 6.1 47 5.8 W 6 7 3 4 1020.4 - 0.0
19/08:00am 16.5 14.5 6.3 51 5.2 WSW 6 7 3 4 1020.2 - 0.0
19/07:30am 15.4 14.2 6.4 55 4.5 W 2 7 1 4 1020.0 - 0.0
19/07:00am 13.9 12.6 5.8 58 4.0 WSW 2 6 1 3 1019.8 - 0.0
19/06:30am 12.8 11.3 5.2 60 3.7 WSW 2 7 1 4 1019.6 - 0.0
19/06:00am 12.5 11.5 5.7 63 3.3 CALM 0 0 0 0 1019.4 1017.1 0.0
19/05:30am 12.9 11.8 5.3 60 3.7 CALM 0 0 0 0 1019.3 - 0.0
19/05:00am 13.2 12.2 5.4 59 3.8 CALM 0 0 0 0 1019.1 - 0.0
19/04:30am 13.4 12.4 5.6 59 3.8 CALM 0 0 0 0 1019.0 - 0.0
19/04:00am 12.8 10.3 5.0 59 3.7 SW 7 9 4 5 1018.8 - 0.0
19/03:30am 13.5 10.8 5.4 58 3.9 SW 9 11 5 6 1018.7 - 0.0
19/03:00am 13.4 10.2 5.1 57 4.0 SW 11 13 6 7 1018.8 1016.5 0.0
19/02:30am 13.9 11.1 5.0 55 4.3 SW 9 13 5 7 1019.0 - 0.0
19/02:00am 13.7 10.5 5.1 56 4.2 SW 11 13 6 7 1019.1 - 0.0
19/01:30am 13.5 10.6 4.9 56 4.1 SW 9 15 5 8 1019.3 - 0.0
19/01:00am 13.5 10.3 4.9 56 4.1 SW 11 15 6 8 1019.4 - 0.0
19/12:30am 14.1 11.2 4.7 53 4.5 WSW 9 13 5 7 1019.4 - 0.0
19/12:00am 14.7 11.8 4.7 51 4.8 WSW 9 11 5 6 1019.5 1017.2 0.0
 
Date/Time
EST
Tmp

°C
App
Tmp
°C
Dew
Point
°C
Rel
Hum
%
Delta-T

°C
Wind Press
QNH
hPa
Press
MSL
hPa
Rain
since
9 am
mm
Dir
 
Spd
km/h
Gust
km/h
Spd
kts
Gust
kts
18/11:30pm 15.0 12.5 5.0 51 4.9 WSW 7 9 4 5 1019.6 - 0.0
18/11:00pm 15.3 12.4 4.9 50 5.1 WSW 9 11 5 6 1019.6 - 0.0
18/10:30pm 16.0 12.8 5.0 48 5.4 WSW 11 17 6 9 1019.6 - 0.0
18/10:00pm 16.1 12.9 5.1 48 5.4 WSW 11 13 6 7 1019.7 - 0.0
18/09:30pm 16.5 14.0 4.9 46 5.7 W 7 9 4 5 1019.7 - 0.0
18/09:00pm 15.9 13.0 4.6 47 5.5 WSW 9 13 5 7 1019.6 1017.3 0.0
18/08:30pm 16.3 12.7 5.0 47 5.6 WSW 13 15 7 8 1019.4 - 0.0
18/08:00pm 16.3 12.6 4.7 46 5.7 SW 13 17 7 9 1019.3 - 0.0
18/07:30pm 17.0 13.2 4.0 42 6.3 SW 13 20 7 11 1018.9 - 0.0
18/07:00pm 17.5 13.2 3.4 39 6.8 WSW 15 17 8 9 1018.7 - 0.0
18/06:30pm 17.9 14.0 3.4 38 7.0 SW 13 15 7 8 1018.1 - 0.0
18/06:00pm 18.7 15.2 3.3 36 7.4 WSW 11 13 6 7 1017.8 1015.5 0.0
18/05:30pm 20.0 15.8 3.7 34 8.0 WSW 15 20 8 11 1017.6 - 0.0
18/05:00pm 21.6 16.7 4.2 32 8.7 WSW 19 28 10 15 1017.3 - 0.0
18/04:30pm 22.4 17.6 4.5 31 9.1 WSW 19 24 10 13 1017.1 - 0.0
18/04:00pm 22.8 17.5 4.8 31 9.2 WSW 22 30 12 16 1017.0 - 0.0
18/03:30pm 23.0 18.4 5.4 32 9.1 SW 19 24 10 13 1016.8 - 0.0
18/03:00pm 23.1 19.0 6.0 33 9.0 SSW 17 24 9 13 1016.8 1014.5 0.0
18/02:30pm 23.3 18.7 6.6 34 8.9 W 20 28 11 15 1017.0 - 0.0
18/02:00pm 22.5 17.8 5.9 34 8.7 SW 20 26 11 14 1017.2 - 0.0
18/01:30pm 22.3 18.4 6.9 37 8.2 SW 17 24 9 13 1017.2 - 0.0
18/01:00pm 22.1 17.9 5.9 35 8.4 WSW 17 24 9 13 1017.4 - 0.0
18/12:30pm 21.6 17.7 7.1 39 7.7 WSW 17 28 9 15 1017.9 - 0.0
18/12:00pm 21.2 17.3 7.1 40 7.4 WSW 17 24 9 13 1018.4 1016.1 0.0
18/11:30am 21.1 17.2 7.3 41 7.3 WSW 17 26 9 14 1019.1 - 0.0
18/11:00am 20.9 16.6 7.9 43 7.0 SW 20 24 11 13 1019.5 - 0.0
18/10:30am 20.1 16.8 9.7 51 5.7 SW 17 24 9 13 1019.9 - 0.0
18/10:00am 19.4 17.4 10.1 55 5.1 WSW 11 19 6 10 1020.1 - 0.0
18/09:30am 18.6 16.8 10.9 61 4.3 WNW 11 17 6 9 1020.2 - 0.0
18/09:00am 17.5 15.8 11.3 67 3.5 WNW 11 15 6 8 1020.4 1018.1 0.0
18/08:30am 16.8 15.9 12.5 76 2.5 W 9 13 5 7 1020.2 - 0.0
18/08:00am 16.1 15.7 13.0 82 1.8 W 7 9 4 5 1020.1 - 0.0
18/07:30am 15.1 16.1 13.1 88 1.1 CALM 0 0 0 0 1020.0 - 0.0
18/07:00am 13.8 14.7 13.0 95 0.5 CALM 0 6 0 3 1019.8 - 0.0
18/06:30am 12.6 11.9 12.0 96 0.3 E 7 9 4 5 1019.7 - 0.0
18/06:00am 12.0 10.7 11.4 96 0.3 E 9 11 5 6 1019.3 1017.0 0.0
18/05:30am 12.4 10.9 11.9 97 0.3 E 11 13 6 7 1019.1 - 0.0
18/05:00am 11.9 10.2 11.1 95 0.4 E 11 13 6 7 1018.9 - 0.0
18/04:30am 11.8 9.6 10.9 94 0.5 E 13 13 7 7 1019.0 - 0.0
18/04:00am 11.8 10.0 10.7 93 0.6 E 11 13 6 7 1019.0 - 0.0
18/03:30am 12.2 10.5 11.1 93 0.6 E 11 13 6 7 1019.0 - 0.0
18/03:00am 12.3 10.7 11.4 94 0.5 E 11 13 6 7 1019.1 1016.8 0.0
18/02:30am 11.8 9.9 10.5 92 0.7 E 11 13 6 7 1019.2 - 0.0
18/02:00am 11.8 9.4 10.2 90 0.8 E 13 13 7 7 1019.3 - 0.0
18/01:30am 13.2 12.1 11.8 91 0.8 ESE 9 11 5 6 1019.5 - 0.0
18/01:00am 12.6 11.0 10.3 86 1.2 ESE 9 11 5 6 1019.8 - 0.0
18/12:30am 13.7 12.4 11.2 85 1.4 E 9 13 5 7 1019.9 - 0.0
18/12:00am 13.9 12.2 11.2 84 1.5 E 11 13 6 7 1020.4 1018.1 0.0
 
Date/Time
EST
Tmp

°C
App
Tmp
°C
Dew
Point
°C
Rel
Hum
%
Delta-T

°C
Wind Press
QNH
hPa
Press
MSL
hPa
Rain
since
9 am
mm
Dir
 
Spd
km/h
Gust
km/h
Spd
kts
Gust
kts
17/11:30pm 13.8 11.6 10.8 82 1.6 ESE 13 15 7 8 1020.4 - 0.0
17/11:00pm 13.9 11.2 8.9 72 2.6 E 13 15 7 8 1020.5 - 0.0
17/10:30pm 14.9 12.0 8.2 64 3.5 E 13 15 7 8 1020.6 - 0.0
17/10:00pm 16.9 14.5 7.0 52 5.1 SSW 9 11 5 6 1020.5 - 0.0
17/09:30pm 16.5 14.1 6.9 53 4.9 SW 9 11 5 6 1020.6 - 0.0
17/09:00pm 16.6 14.2 7.0 53 4.9 SW 9 11 5 6 1020.5 1018.2 0.0
17/08:30pm 16.6 13.8 7.0 53 4.9 SW 11 13 6 7 1020.2 - 0.0
17/08:00pm 16.9 14.1 7.0 52 5.1 SW 11 13 6 7 1020.0 - 0.0
17/07:30pm 17.7 15.0 7.4 51 5.4 SSW 11 15 6 8 1019.8 - 0.0
17/07:00pm 17.5 15.2 7.3 51 5.3 SSW 9 15 5 8 1019.5 - 0.0
17/06:30pm 18.2 15.0 7.0 48 5.8 SW 13 17 7 9 1019.1 - 0.0
17/06:00pm 18.7 15.5 6.9 46 6.1 SW 13 15 7 8 1018.8 1016.5 0.0
17/05:30pm 19.8 16.6 6.9 43 6.7 SW 13 17 7 9 1018.5 - 0.0
17/05:00pm 21.0 16.6 6.5 39 7.6 SW 19 24 10 13 1018.3 - 0.0
17/04:30pm 22.4 18.9 7.0 37 8.2 WSW 15 20 8 11 1017.9 - 0.0
17/04:00pm 22.7 18.6 8.0 39 8.0 WSW 19 28 10 15 1017.7 - 0.0
17/03:30pm 23.1 19.6 8.8 40 7.9 SW 17 22 9 12 1017.7 - 0.0
17/03:00pm 21.9 17.5 8.8 43 7.2 SW 22 28 12 15 1017.8 1015.5 0.0
17/02:30pm 21.8 19.0 8.7 43 7.2 W 13 15 7 8 1018.0 - 0.0
17/02:00pm 22.4 18.0 8.9 42 7.4 SW 22 28 12 15 1018.2 - 0.0
17/01:30pm 22.7 17.9 8.8 41 7.6 WSW 24 28 13 15 1018.3 - 0.0
17/01:00pm 22.6 17.9 7.6 38 8.1 WNW 22 24 12 13 1018.7 - 0.0
17/12:30pm 22.2 19.4 10.0 46 6.8 WNW 15 22 8 12 1019.1 - 0.0
17/12:00pm 20.8 18.2 10.6 52 5.7 WSW 15 20 8 11 1019.5 1017.2 0.0
17/11:30am 21.2 19.0 10.7 51 5.9 SW 13 20 7 11 1020.0 - 0.0
17/11:00am 20.8 19.2 11.7 56 5.2 WNW 11 20 6 11 1020.5 - 0.0
17/10:30am 21.1 20.5 13.5 62 4.5 N 9 15 5 8 1020.7 - 0.0
17/10:00am 20.1 19.2 13.6 66 3.8 NNW 11 19 6 10 1020.9 - 0.0
17/09:30am 18.8 17.2 12.8 68 3.5 NNW 13 19 7 10 1021.1 - 0.0
17/09:00am 18.6 17.7 13.7 73 2.9 N 11 15 6 8 1021.1 1018.8 0.0
17/08:30am 17.8 16.9 13.7 77 2.4 NNE 11 17 6 9 1021.1 - 0.0
17/08:00am 17.1 15.8 13.8 81 1.9 NE 13 17 7 9 1021.0 - 0.0
17/07:30am 16.2 15.4 14.0 87 1.3 ENE 11 15 6 8 1020.8 - 0.0
17/06:30am 13.2 11.9 12.4 95 0.4 ENE 11 13 6 7 1020.1 - 0.0
17/06:00am 13.1 11.4 12.3 95 0.4 ENE 13 15 7 8 1019.9 1017.6 0.0
17/05:30am 13.6 12.0 12.8 95 0.5 ENE 13 17 7 9 1019.6 - 0.0
17/05:00am 13.3 12.0 12.5 95 0.4 ENE 11 13 6 7 1019.5 - 0.0
17/04:30am 13.1 11.7 12.3 95 0.4 ENE 11 13 6 7 1019.3 - 0.0
17/04:00am 13.1 11.6 12.0 93 0.6 E 11 13 6 7 1019.2 - 0.0
17/03:30am 13.5 11.7 12.2 92 0.7 E 13 17 7 9 1019.0 - 0.0
17/03:00am 13.8 12.0 12.2 90 0.9 E 13 17 7 9 1018.8 1016.5 0.0
17/02:30am 14.3 12.1 12.2 87 1.2 E 15 19 8 10 1018.9 - 0.0
17/02:00am 14.8 12.7 12.3 85 1.4 ENE 15 22 8 12 1018.9 - 0.0
17/01:30am 15.3 12.8 12.2 82 1.7 ENE 17 20 9 11 1019.1 - 0.0
17/01:00am 15.0 12.9 12.3 84 1.5 E 15 20 8 11 1019.3 - 0.0
17/12:30am 14.1 12.1 11.4 84 1.5 E 13 17 7 9 1019.4 - 0.0
17/12:00am 14.8 12.9 11.8 82 1.7 E 13 19 7 10 1019.3 1017.0 0.0
 
Date/Time
EST
Tmp

°C
App
Tmp
°C
Dew
Point
°C
Rel
Hum
%
Delta-T

°C
Wind Press
QNH
hPa
Press
MSL
hPa
Rain
since
9 am
mm
Dir
 
Spd
km/h
Gust
km/h
Spd
kts
Gust
kts
16/11:30pm 14.9 13.0 11.7 81 1.8 E 13 17 7 9 1019.3 - 0.0
16/11:00pm 15.4 12.7 11.6 78 2.1 E 17 19 9 10 1019.3 - 0.0
16/10:30pm 15.7 12.6 11.5 76 2.3 ESE 19 22 10 12 1019.4 - 0.0
16/10:00pm 16.5 13.4 11.6 73 2.7 E 19 22 10 12 1019.5 - 0.0
16/09:30pm 15.6 13.4 12.0 79 2.0 E 15 17 8 9 1019.5 - 0.0
16/09:00pm 16.6 14.1 12.4 76 2.4 E 17 19 9 10 1019.4 1017.1 0.0
16/08:30pm 15.8 13.9 11.8 77 2.2 ESE 13 17 7 9 1019.2 - 0.0
16/08:00pm 16.0 14.2 11.0 72 2.8 ESE 11 15 6 8 1018.9 - 0.0
16/07:30pm 16.9 15.2 9.8 63 3.9 SE 9 13 5 7 1018.7 - 0.0
16/07:00pm 18.7 17.1 8.9 53 5.3 SSE 7 11 4 6 1018.2 - 0.0
16/06:30pm 19.0 17.4 8.9 52 5.5 S 7 9 4 5 1018.1 - 0.0

Latest Capital City Observations: Canberra | Sydney | Melbourne | Brisbane | Adelaide | Perth | Hobart | Darwin

Other Formats:

Comma delimited format used in spreadsheet applications
http://www.bom.gov.au/fwo/IDQ60901/IDQ60901.95551.axf

JavaScript Object Notation format (JSON) in row-major order
http://www.bom.gov.au/fwo/IDQ60901/IDQ60901.95551.json